Orumieh, Iran
Current Conditions -  °F | °C
As of 8:30 AM on Thursday 18 Dec 2014 (Local Time) from OITR Reporting Station
Overcast Overcast  
Wind Chill:   Ceiling: 10000
Heat Index:   Visibility: 5mi
Dew Point: -1°   Wind: 5mph
Humidity: 75%   Direction: 260°W
Pressure: 30.24"   Gusts: NA
Location:  37.53°N, 45.08°E
Report Text: OITR 180530Z 26004KT 8000 FEW035CB SCT040 OVC100 03/M01 Q1024
Loading
Personal Weather Stations






























Interactive Weather Map New forecast layout! Learn more

10-Day Weather Forecast

Advertisements
Track Severe Weather on mobile